Terminal Aerodrome Forecast
Issued by NWS

Home | Current Version | Previous Version | Text Only | Print | Product List | Glossary On
Versions: 1 2 3 4 5 6 7 8 9 10 11 12 13 14 15 16 17 18 19 20 21 22 23 24 25 26 27 28 29 30 31 32 33 34 35 36 37 38 39 40
000
FTUS44 KHGX 291720
TAFLBX
TAF
KLBX 291720Z 2918/3018 36010KT P6SM SCT035 SCT250
     FM292000 01010KT P6SM VCTS SCT040CB SCT250
     FM300300 02004KT P6SM FEW045 FEW250
     FM301500 05010KT P6SM FEW035 SCT250=

USA.gov is the U.S. government's official web portal to all federal, state and local government web resources and services.